sensor_id;sensor_type;location;lat;lon;timestamp;P1;P2;P0
68841;PMS5003;55849;48.482;2.332;2023-06-22T04:23:25;6.00;5.75;3.00
68841;PMS5003;55849;48.482;2.332;2023-06-22T04:26:27;5.50;5.00;3.00
68841;PMS5003;55849;48.482;2.332;2023-06-22T04:29:28;4.50;4.50;3.00
68841;PMS5003;55849;48.482;2.332;2023-06-22T04:32:30;7.50;5.50;3.50
68841;PMS5003;55849;48.482;2.332;2023-06-22T04:35:32;4.50;3.75;3.00
68841;PMS5003;55849;48.482;2.332;2023-06-22T04:38:35;6.25;6.25;4.00
68841;PMS5003;55849;48.482;2.332;2023-06-22T04:41:37;4.00;4.00;3.00
68841;PMS5003;55849;48.482;2.332;2023-06-22T04:44:45;6.25;6.00;4.00
68841;PMS5003;55849;48.482;2.332;2023-06-22T04:47:47;5.00;5.00;4.00
68841;PMS5003;55849;48.482;2.332;2023-06-22T04:50:48;6.50;5.00;3.00
68841;PMS5003;55849;48.482;2.332;2023-06-22T04:53:51;5.50;5.50;4.00
68841;PMS5003;55849;48.482;2.332;2023-06-22T04:57:00;4.00;4.00;3.75
68841;PMS5003;55849;48.482;2.332;2023-06-22T05:00:02;4.00;4.00;3.50
68841;PMS5003;55849;48.482;2.332;2023-06-22T05:03:13;10.75;5.75;4.25
68841;PMS5003;55849;48.482;2.332;2023-06-22T05:06:18;4.75;4.75;4.50
68841;PMS5003;55849;48.482;2.332;2023-06-22T05:09:21;5.25;5.25;4.25
68841;PMS5003;55849;48.482;2.332;2023-06-22T05:12:23;4.75;4.50;3.25
68841;PMS5003;55849;48.482;2.332;2023-06-22T05:15:25;6.00;6.00;4.50
68841;PMS5003;55849;48.482;2.332;2023-06-22T05:18:30;11.50;6.50;5.25
68841;PMS5003;55849;48.482;2.332;2023-06-22T05:21:32;7.25;7.25;4.00
68841;PMS5003;55849;48.482;2.332;2023-06-22T05:24:35;7.75;7.25;4.25
68841;PMS5003;55849;48.482;2.332;2023-06-22T05:27:37;9.25;8.75;4.25
68841;PMS5003;55849;48.482;2.332;2023-06-22T05:30:40;9.25;8.00;5.75
68841;PMS5003;55849;48.482;2.332;2023-06-22T05:33:42;11.50;7.50;5.25
68841;PMS5003;55849;48.482;2.332;2023-06-22T05:36:45;7.50;7.50;6.00
68841;PMS5003;55849;48.482;2.332;2023-06-22T05:39:48;9.00;9.00;5.75
68841;PMS5003;55849;48.482;2.332;2023-06-22T05:42:49;9.00;9.00;6.00
68841;PMS5003;55849;48.482;2.332;2023-06-22T05:45:51;8.50;8.25;4.25
68841;PMS5003;55849;48.482;2.332;2023-06-22T05:48:53;7.75;7.75;5.00
68841;PMS5003;55849;48.482;2.332;2023-06-22T05:51:54;5.75;5.75;4.75
68841;PMS5003;55849;48.482;2.332;2023-06-22T05:54:58;8.50;8.00;6.00
68841;PMS5003;55849;48.482;2.332;2023-06-22T05:57:59;8.50;7.50;5.00
68841;PMS5003;55849;48.482;2.332;2023-06-22T06:01:01;9.50;8.75;6.00
68841;PMS5003;55849;48.482;2.332;2023-06-22T06:04:03;10.75;8.75;5.50
68841;PMS5003;55849;48.482;2.332;2023-06-22T06:07:05;9.75;6.50;6.00
68841;PMS5003;55849;48.482;2.332;2023-06-22T06:10:08;9.00;8.75;6.00
68841;PMS5003;55849;48.482;2.332;2023-06-22T06:13:10;7.75;7.75;6.00
68841;PMS5003;55849;48.482;2.332;2023-06-22T06:16:12;7.75;7.75;5.50
68841;PMS5003;55849;48.482;2.332;2023-06-22T06:19:14;8.50;8.50;5.75
68841;PMS5003;55849;48.482;2.332;2023-06-22T06:22:15;10.00;9.00;6.50
68841;PMS5003;55849;48.482;2.332;2023-06-22T06:25:20;10.75;9.25;6.00
68841;PMS5003;55849;48.482;2.332;2023-06-22T06:28:22;8.25;8.25;6.00
68841;PMS5003;55849;48.482;2.332;2023-06-22T06:31:25;10.75;9.75;6.25
68841;PMS5003;55849;48.482;2.332;2023-06-22T06:34:28;10.25;10.25;5.75
68841;PMS5003;55849;48.482;2.332;2023-06-22T06:37:30;11.25;10.00;7.00
68841;PMS5003;55849;48.482;2.332;2023-06-22T06:40:33;8.25;6.25;6.00
68841;PMS5003;55849;48.482;2.332;2023-06-22T06:43:34;10.75;10.75;7.00
68841;PMS5003;55849;48.482;2.332;2023-06-22T06:46:36;12.25;9.25;6.50
68841;PMS5003;55849;48.482;2.332;2023-06-22T06:49:38;9.25;8.50;7.00
68841;PMS5003;55849;48.482;2.332;2023-06-22T06:52:39;11.75;11.75;7.50
68841;PMS5003;55849;48.482;2.332;2023-06-22T06:55:42;9.00;9.00;6.00
68841;PMS5003;55849;48.482;2.332;2023-06-22T06:58:45;8.25;5.25;5.00
68841;PMS5003;55849;48.482;2.332;2023-06-22T07:01:47;8.25;8.00;6.00
68841;PMS5003;55849;48.482;2.332;2023-06-22T07:04:48;10.00;10.00;7.50
68841;PMS5003;55849;48.482;2.332;2023-06-22T07:07:50;10.50;10.50;7.00
68841;PMS5003;55849;48.482;2.332;2023-06-22T07:10:54;11.00;9.25;7.50
68841;PMS5003;55849;48.482;2.332;2023-06-22T07:13:56;11.50;9.75;7.25
68841;PMS5003;55849;48.482;2.332;2023-06-22T07:16:58;12.00;11.00;8.50
68841;PMS5003;55849;48.482;2.332;2023-06-22T07:20:00;14.00;11.75;7.75
68841;PMS5003;55849;48.482;2.332;2023-06-22T07:23:01;14.25;11.25;7.50
68841;PMS5003;55849;48.482;2.332;2023-06-22T07:26:04;14.50;9.75;7.75
68841;PMS5003;55849;48.482;2.332;2023-06-22T07:29:06;13.00;11.75;8.50
68841;PMS5003;55849;48.482;2.332;2023-06-22T07:32:08;12.50;12.00;8.75
68841;PMS5003;55849;48.482;2.332;2023-06-22T07:35:10;11.50;10.50;8.00
68841;PMS5003;55849;48.482;2.332;2023-06-22T07:38:11;18.00;15.75;9.25
68841;PMS5003;55849;48.482;2.332;2023-06-22T07:41:16;16.50;14.50;11.00
68841;PMS5003;55849;48.482;2.332;2023-06-22T07:44:19;18.25;16.75;9.50
68841;PMS5003;55849;48.482;2.332;2023-06-22T07:47:21;15.00;12.50;9.75
68841;PMS5003;55849;48.482;2.332;2023-06-22T07:50:25;13.00;13.00;9.50
68841;PMS5003;55849;48.482;2.332;2023-06-22T07:53:26;18.00;15.75;10.25
68841;PMS5003;55849;48.482;2.332;2023-06-22T07:56:29;17.75;17.50;11.75
68841;PMS5003;55849;48.482;2.332;2023-06-22T07:59:32;18.00;13.75;10.25
68841;PMS5003;55849;48.482;2.332;2023-06-22T08:02:33;17.00;14.50;10.25
68841;PMS5003;55849;48.482;2.332;2023-06-22T08:05:35;21.50;16.00;10.25
68841;PMS5003;55849;48.482;2.332;2023-06-22T08:08:37;17.75;16.25;10.25
68841;PMS5003;55849;48.482;2.332;2023-06-22T08:11:40;18.50;16.25;10.25
68841;PMS5003;55849;48.482;2.332;2023-06-22T08:14:42;21.25;16.75;11.25
68841;PMS5003;55849;48.482;2.332;2023-06-22T08:17:44;15.50;14.75;10.75
68841;PMS5003;55849;48.482;2.332;2023-06-22T08:20:46;18.00;15.25;10.25
68841;PMS5003;55849;48.482;2.332;2023-06-22T08:23:48;18.50;18.25;12.50
68841;PMS5003;55849;48.482;2.332;2023-06-22T08:26:51;22.50;19.25;11.50
68841;PMS5003;55849;48.482;2.332;2023-06-22T08:29:53;19.00;19.00;13.00
68841;PMS5003;55849;48.482;2.332;2023-06-22T08:32:58;21.00;17.75;12.75
68841;PMS5003;55849;48.482;2.332;2023-06-22T08:35:59;20.00;19.00;11.75
68841;PMS5003;55849;48.482;2.332;2023-06-22T08:39:01;21.00;18.50;12.25
68841;PMS5003;55849;48.482;2.332;2023-06-22T08:42:05;17.75;16.75;12.00
68841;PMS5003;55849;48.482;2.332;2023-06-22T08:45:07;23.75;20.50;14.75
68841;PMS5003;55849;48.482;2.332;2023-06-22T08:48:13;21.25;17.75;13.00
68841;PMS5003;55849;48.482;2.332;2023-06-22T08:51:14;23.00;17.50;12.50
68841;PMS5003;55849;48.482;2.332;2023-06-22T08:54:16;21.50;19.50;14.50
68841;PMS5003;55849;48.482;2.332;2023-06-22T08:57:19;28.25;22.75;12.50
68841;PMS5003;55849;48.482;2.332;2023-06-22T09:00:22;24.00;19.75;11.50
68841;PMS5003;55849;48.482;2.332;2023-06-22T09:03:23;20.25;18.25;14.75
68841;PMS5003;55849;48.482;2.332;2023-06-22T09:06:26;21.25;19.50;14.00
68841;PMS5003;55849;48.482;2.332;2023-06-22T09:09:28;23.25;18.25;11.25
68841;PMS5003;55849;48.482;2.332;2023-06-22T09:12:31;24.75;20.25;15.25
68841;PMS5003;55849;48.482;2.332;2023-06-22T09:15:33;21.25;20.50;14.50
68841;PMS5003;55849;48.482;2.332;2023-06-22T09:18:35;22.00;21.50;15.25
68841;PMS5003;55849;48.482;2.332;2023-06-22T09:21:37;21.00;20.25;12.75
68841;PMS5003;55849;48.482;2.332;2023-06-22T09:24:39;18.50;17.75;12.75
68841;PMS5003;55849;48.482;2.332;2023-06-22T09:27:42;24.50;19.00;11.25
68841;PMS5003;55849;48.482;2.332;2023-06-22T09:30:43;22.50;20.00;14.00
68841;PMS5003;55849;48.482;2.332;2023-06-22T09:33:45;19.50;19.50;13.00
68841;PMS5003;55849;48.482;2.332;2023-06-22T09:36:47;19.25;18.00;12.25
68841;PMS5003;55849;48.482;2.332;2023-06-22T09:39:49;26.00;21.50;13.00
68841;PMS5003;55849;48.482;2.332;2023-06-22T09:42:52;21.00;19.75;12.50
68841;PMS5003;55849;48.482;2.332;2023-06-22T09:45:53;25.25;23.50;16.00
68841;PMS5003;55849;48.482;2.332;2023-06-22T09:48:55;21.50;19.75;14.25
68841;PMS5003;55849;48.482;2.332;2023-06-22T09:51:56;21.00;19.25;13.25
68841;PMS5003;55849;48.482;2.332;2023-06-22T09:54:58;20.00;20.00;14.50
68841;PMS5003;55849;48.482;2.332;2023-06-22T09:58:01;20.00;20.00;14.50
68841;PMS5003;55849;48.482;2.332;2023-06-22T10:01:02;25.50;21.75;14.25
68841;PMS5003;55849;48.482;2.332;2023-06-22T10:04:04;26.25;21.75;14.50
68841;PMS5003;55849;48.482;2.332;2023-06-22T10:07:06;22.50;19.25;14.00
68841;PMS5003;55849;48.482;2.332;2023-06-22T10:10:08;22.75;21.50;14.00
68841;PMS5003;55849;48.482;2.332;2023-06-22T10:13:11;19.00;19.00;11.25
68841;PMS5003;55849;48.482;2.332;2023-06-22T10:16:12;21.25;21.25;15.75
68841;PMS5003;55849;48.482;2.332;2023-06-22T10:19:14;20.75;20.00;12.25
68841;PMS5003;55849;48.482;2.332;2023-06-22T10:22:16;17.50;13.25;11.25
68841;PMS5003;55849;48.482;2.332;2023-06-22T10:25:18;20.25;17.00;11.50
68841;PMS5003;55849;48.482;2.332;2023-06-22T10:28:21;16.50;15.25;11.25
68841;PMS5003;55849;48.482;2.332;2023-06-22T10:31:22;24.75;21.25;15.00
68841;PMS5003;55849;48.482;2.332;2023-06-22T10:34:24;23.25;19.00;12.25
68841;PMS5003;55849;48.482;2.332;2023-06-22T10:37:25;20.25;19.25;12.25
68841;PMS5003;55849;48.482;2.332;2023-06-22T10:40:27;22.25;19.00;14.00
68841;PMS5003;55849;48.482;2.332;2023-06-22T10:43:30;24.50;20.75;15.00
68841;PMS5003;55849;48.482;2.332;2023-06-22T10:46:32;22.00;18.75;13.25
68841;PMS5003;55849;48.482;2.332;2023-06-22T10:49:33;20.25;17.00;12.50
68841;PMS5003;55849;48.482;2.332;2023-06-22T10:52:36;20.00;19.00;13.00
68841;PMS5003;55849;48.482;2.332;2023-06-22T10:55:38;24.75;18.25;11.75
68841;PMS5003;55849;48.482;2.332;2023-06-22T10:58:40;23.75;20.25;14.00
68841;PMS5003;55849;48.482;2.332;2023-06-22T11:01:42;19.25;19.25;11.50
68841;PMS5003;55849;48.482;2.332;2023-06-22T11:04:44;19.25;18.00;12.50
68841;PMS5003;55849;48.482;2.332;2023-06-22T11:07:46;18.50;15.75;11.50
68841;PMS5003;55849;48.482;2.332;2023-06-22T11:10:50;16.25;13.50;10.25
68841;PMS5003;55849;48.482;2.332;2023-06-22T11:13:54;21.50;13.25;10.50
68841;PMS5003;55849;48.482;2.332;2023-06-22T11:16:55;20.00;16.25;11.25
68841;PMS5003;55849;48.482;2.332;2023-06-22T11:19:57;18.50;16.25;10.75
68841;PMS5003;55849;48.482;2.332;2023-06-22T11:23:00;15.75;13.00;10.75
68841;PMS5003;55849;48.482;2.332;2023-06-22T11:26:01;13.00;12.00;8.50
68841;PMS5003;55849;48.482;2.332;2023-06-22T11:29:04;14.75;14.00;8.75
68841;PMS5003;55849;48.482;2.332;2023-06-22T11:32:06;16.25;10.75;8.50
68841;PMS5003;55849;48.482;2.332;2023-06-22T11:35:08;11.50;11.50;7.00
68841;PMS5003;55849;48.482;2.332;2023-06-22T11:38:10;12.25;10.75;8.25
68841;PMS5003;55849;48.482;2.332;2023-06-22T11:41:12;11.75;11.00;8.00
68841;PMS5003;55849;48.482;2.332;2023-06-22T11:44:14;11.00;11.00;8.00
68841;PMS5003;55849;48.482;2.332;2023-06-22T11:47:16;13.25;11.75;7.50
68841;PMS5003;55849;48.482;2.332;2023-06-22T11:50:18;11.00;10.00;6.25
68841;PMS5003;55849;48.482;2.332;2023-06-22T11:53:20;9.50;9.50;7.00
68841;PMS5003;55849;48.482;2.332;2023-06-22T11:56:22;10.75;10.75;6.25
68841;PMS5003;55849;48.482;2.332;2023-06-22T11:59:25;12.25;10.75;8.25
68841;PMS5003;55849;48.482;2.332;2023-06-22T12:02:26;9.75;8.25;6.00
68841;PMS5003;55849;48.482;2.332;2023-06-22T12:05:28;13.50;10.25;6.75
68841;PMS5003;55849;48.482;2.332;2023-06-22T12:08:30;9.75;8.25;6.00
68841;PMS5003;55849;48.482;2.332;2023-06-22T12:11:31;9.50;9.50;6.75
68841;PMS5003;55849;48.482;2.332;2023-06-22T12:14:34;13.25;11.25;8.25
68841;PMS5003;55849;48.482;2.332;2023-06-22T12:17:36;9.25;9.25;6.00
68841;PMS5003;55849;48.482;2.332;2023-06-22T12:20:41;10.00;8.25;6.00
68841;PMS5003;55849;48.482;2.332;2023-06-22T12:23:43;16.25;13.50;9.75
68841;PMS5003;55849;48.482;2.332;2023-06-22T12:26:44;10.50;9.50;5.00
68841;PMS5003;55849;48.482;2.332;2023-06-22T12:29:47;10.75;10.00;7.00
68841;PMS5003;55849;48.482;2.332;2023-06-22T12:32:49;12.50;9.75;6.25
68841;PMS5003;55849;48.482;2.332;2023-06-22T12:35:51;13.75;10.75;6.50
68841;PMS5003;55849;48.482;2.332;2023-06-22T12:38:53;10.75;10.25;7.00
68841;PMS5003;55849;48.482;2.332;2023-06-22T12:41:55;8.50;8.50;6.00
68841;PMS5003;55849;48.482;2.332;2023-06-22T12:44:58;9.25;9.25;7.00
68841;PMS5003;55849;48.482;2.332;2023-06-22T12:48:00;10.75;9.25;7.00
68841;PMS5003;55849;48.482;2.332;2023-06-22T12:51:02;8.50;7.75;5.00
68841;PMS5003;55849;48.482;2.332;2023-06-22T12:54:03;12.25;10.25;8.00
68841;PMS5003;55849;48.482;2.332;2023-06-22T12:57:05;10.75;9.00;7.00
68841;PMS5003;55849;48.482;2.332;2023-06-22T13:00:09;10.25;8.50;7.00
68841;PMS5003;55849;48.482;2.332;2023-06-22T13:03:12;7.00;7.00;6.00
68841;PMS5003;55849;48.482;2.332;2023-06-22T13:06:13;8.00;6.75;5.00
68841;PMS5003;55849;48.482;2.332;2023-06-22T13:09:15;12.25;10.25;8.25
68841;PMS5003;55849;48.482;2.332;2023-06-22T13:12:19;11.25;11.25;7.25
68841;PMS5003;55849;48.482;2.332;2023-06-22T13:15:22;13.50;11.00;7.50
68841;PMS5003;55849;48.482;2.332;2023-06-22T13:18:24;12.50;9.25;7.00
68841;PMS5003;55849;48.482;2.332;2023-06-22T13:21:26;11.00;10.25;7.25
68841;PMS5003;55849;48.482;2.332;2023-06-22T13:24:27;10.25;9.00;7.25
68841;PMS5003;55849;48.482;2.332;2023-06-22T13:27:29;11.00;11.00;8.50
68841;PMS5003;55849;48.482;2.332;2023-06-22T13:30:32;11.50;11.50;8.75
68841;PMS5003;55849;48.482;2.332;2023-06-22T13:33:33;11.25;9.75;6.25
68841;PMS5003;55849;48.482;2.332;2023-06-22T13:36:35;7.75;7.75;6.75
68841;PMS5003;55849;48.482;2.332;2023-06-22T13:39:36;12.25;12.25;8.50
68841;PMS5003;55849;48.482;2.332;2023-06-22T13:42:38;4.25;4.25;2.00
68841;PMS5003;55849;48.482;2.332;2023-06-22T13:45:41;11.25;10.50;6.50
68841;PMS5003;55849;48.482;2.332;2023-06-22T13:48:43;7.00;7.00;5.75
68841;PMS5003;55849;48.482;2.332;2023-06-22T13:51:45;10.75;9.00;6.00
68841;PMS5003;55849;48.482;2.332;2023-06-22T13:54:48;9.50;8.50;6.00
68841;PMS5003;55849;48.482;2.332;2023-06-22T13:57:49;12.00;10.25;6.00
68841;PMS5003;55849;48.482;2.332;2023-06-22T14:00:53;11.00;9.25;6.00
68841;PMS5003;55849;48.482;2.332;2023-06-22T14:03:54;10.50;8.50;6.50
68841;PMS5003;55849;48.482;2.332;2023-06-22T14:06:56;13.50;10.50;8.25
68841;PMS5003;55849;48.482;2.332;2023-06-22T14:10:00;14.00;11.00;6.25
68841;PMS5003;55849;48.482;2.332;2023-06-22T14:13:01;7.00;7.00;5.50
68841;PMS5003;55849;48.482;2.332;2023-06-22T14:16:07;12.75;9.50;6.50
68841;PMS5003;55849;48.482;2.332;2023-06-22T14:19:08;8.25;7.25;6.00
68841;PMS5003;55849;48.482;2.332;2023-06-22T14:22:10;10.75;9.50;8.25
68841;PMS5003;55849;48.482;2.332;2023-06-22T14:25:11;12.50;10.50;7.50
68841;PMS5003;55849;48.482;2.332;2023-06-22T14:28:13;14.00;10.25;6.50
68841;PMS5003;55849;48.482;2.332;2023-06-22T14:31:18;9.00;8.50;6.00
68841;PMS5003;55849;48.482;2.332;2023-06-22T14:34:20;12.75;12.00;9.25
68841;PMS5003;55849;48.482;2.332;2023-06-22T14:37:22;12.75;8.25;7.00
68841;PMS5003;55849;48.482;2.332;2023-06-22T14:40:23;11.25;11.25;8.25
68841;PMS5003;55849;48.482;2.332;2023-06-22T14:43:25;13.25;10.50;8.50
68841;PMS5003;55849;48.482;2.332;2023-06-22T14:46:28;10.25;8.75;8.00
68841;PMS5003;55849;48.482;2.332;2023-06-22T14:49:30;11.50;11.50;8.00
68841;PMS5003;55849;48.482;2.332;2023-06-22T14:52:31;11.75;11.75;10.25
68841;PMS5003;55849;48.482;2.332;2023-06-22T14:55:33;13.50;13.50;10.25
68841;PMS5003;55849;48.482;2.332;2023-06-22T14:58:34;10.50;10.50;8.50
68841;PMS5003;55849;48.482;2.332;2023-06-22T15:01:38;9.75;9.75;7.25
68841;PMS5003;55849;48.482;2.332;2023-06-22T15:04:39;11.00;10.50;8.25
68841;PMS5003;55849;48.482;2.332;2023-06-22T15:07:41;14.00;12.50;9.50
68841;PMS5003;55849;48.482;2.332;2023-06-22T15:10:42;11.75;11.75;8.50
68841;PMS5003;55849;48.482;2.332;2023-06-22T15:13:44;8.50;8.50;7.00
68841;PMS5003;55849;48.482;2.332;2023-06-22T15:16:47;10.50;10.50;7.75
68841;PMS5003;55849;48.482;2.332;2023-06-22T15:19:49;11.25;10.25;8.00
68841;PMS5003;55849;48.482;2.332;2023-06-22T15:22:50;10.50;8.50;6.50
68841;PMS5003;55849;48.482;2.332;2023-06-22T15:25:52;11.25;11.25;8.00
68841;PMS5003;55849;48.482;2.332;2023-06-22T15:28:53;11.75;10.25;7.25
68841;PMS5003;55849;48.482;2.332;2023-06-22T15:31:57;9.75;9.75;7.00
68841;PMS5003;55849;48.482;2.332;2023-06-22T15:34:59;10.75;8.75;6.75
68841;PMS5003;55849;48.482;2.332;2023-06-22T15:38:00;7.75;7.25;5.50
68841;PMS5003;55849;48.482;2.332;2023-06-22T15:41:02;8.50;6.75;5.50
68841;PMS5003;55849;48.482;2.332;2023-06-22T15:44:04;8.50;7.00;6.00
68841;PMS5003;55849;48.482;2.332;2023-06-22T15:47:07;8.25;8.25;5.50
68841;PMS5003;55849;48.482;2.332;2023-06-22T15:50:09;7.00;7.00;6.00
68841;PMS5003;55849;48.482;2.332;2023-06-22T15:53:11;7.00;7.00;6.00
68841;PMS5003;55849;48.482;2.332;2023-06-22T15:56:12;7.50;5.75;4.75
68841;PMS5003;55849;48.482;2.332;2023-06-22T15:59:14;9.75;8.25;5.25
68841;PMS5003;55849;48.482;2.332;2023-06-22T16:02:17;7.75;7.75;6.00
68841;PMS5003;55849;48.482;2.332;2023-06-22T16:05:18;9.00;7.75;5.00
68841;PMS5003;55849;48.482;2.332;2023-06-22T16:08:20;8.25;6.00;4.75
68841;PMS5003;55849;48.482;2.332;2023-06-22T16:11:22;6.00;6.00;5.00
68841;PMS5003;55849;48.482;2.332;2023-06-22T16:14:23;10.00;7.25;5.00
68841;PMS5003;55849;48.482;2.332;2023-06-22T16:17:26;7.00;6.00;4.00
68841;PMS5003;55849;48.482;2.332;2023-06-22T16:20:28;7.00;6.00;4.75
68841;PMS5003;55849;48.482;2.332;2023-06-22T16:23:29;7.25;6.50;5.00
68841;PMS5003;55849;48.482;2.332;2023-06-22T16:26:31;7.00;7.00;6.00
68841;PMS5003;55849;48.482;2.332;2023-06-22T16:29:39;9.50;7.25;5.00
68841;PMS5003;55849;48.482;2.332;2023-06-22T16:32:50;6.50;6.50;4.25
68841;PMS5003;55849;48.482;2.332;2023-06-22T16:35:53;7.50;6.50;4.50
68841;PMS5003;55849;48.482;2.332;2023-06-22T16:38:55;6.00;6.00;5.00
68841;PMS5003;55849;48.482;2.332;2023-06-22T16:41:57;6.50;6.00;4.00
68841;PMS5003;55849;48.482;2.332;2023-06-22T16:44:58;8.00;6.25;4.50
68841;PMS5003;55849;48.482;2.332;2023-06-22T16:48:02;5.75;5.50;4.00
68841;PMS5003;55849;48.482;2.332;2023-06-22T16:51:04;5.25;5.25;4.25
68841;PMS5003;55849;48.482;2.332;2023-06-22T16:54:06;5.50;5.50;4.25
68841;PMS5003;55849;48.482;2.332;2023-06-22T16:57:08;7.00;6.00;4.75
68841;PMS5003;55849;48.482;2.332;2023-06-22T17:00:10;9.00;6.75;4.50
68841;PMS5003;55849;48.482;2.332;2023-06-22T17:03:15;5.50;5.50;4.75
68841;PMS5003;55849;48.482;2.332;2023-06-22T17:06:20;6.00;6.00;5.00
68841;PMS5003;55849;48.482;2.332;2023-06-22T17:09:22;3.25;3.25;2.50
68841;PMS5003;55849;48.482;2.332;2023-06-22T17:12:27;4.00;4.00;3.00
68841;PMS5003;55849;48.482;2.332;2023-06-22T17:15:29;3.00;3.00;2.00
68841;PMS5003;55849;48.482;2.332;2023-06-22T17:18:37;6.00;4.25;3.00
68841;PMS5003;55849;48.482;2.332;2023-06-22T17:21:40;2.25;2.25;2.00
68841;PMS5003;55849;48.482;2.332;2023-06-22T17:24:42;4.00;3.50;2.00
68841;PMS5003;55849;48.482;2.332;2023-06-22T17:27:47;4.00;3.00;2.50
68841;PMS5003;55849;48.482;2.332;2023-06-22T17:30:52;3.00;3.00;3.00
68841;PMS5003;55849;48.482;2.332;2023-06-22T17:34:12;4.00;3.50;2.25
68841;PMS5003;55849;48.482;2.332;2023-06-22T17:37:15;8.00;6.25;4.00
68841;PMS5003;55849;48.482;2.332;2023-06-22T17:40:17;4.25;4.25;3.00
68841;PMS5003;55849;48.482;2.332;2023-06-22T17:43:20;4.00;4.00;2.00
68841;PMS5003;55849;48.482;2.332;2023-06-22T17:46:22;6.25;4.00;3.00
68841;PMS5003;55849;48.482;2.332;2023-06-22T17:49:27;6.00;4.75;3.00
68841;PMS5003;55849;48.482;2.332;2023-06-22T17:52:29;4.50;3.00;2.00
68841;PMS5003;55849;48.482;2.332;2023-06-22T17:55:31;5.50;4.00;3.00
68841;PMS5003;55849;48.482;2.332;2023-06-22T17:58:34;5.00;4.50;3.00
68841;PMS5003;55849;48.482;2.332;2023-06-22T18:01:36;4.50;4.25;3.00
68841;PMS5003;55849;48.482;2.332;2023-06-22T18:04:40;5.50;4.75;3.25
68841;PMS5003;55849;48.482;2.332;2023-06-22T18:07:42;2.75;2.75;2.00
68841;PMS5003;55849;48.482;2.332;2023-06-22T18:10:44;6.75;6.75;4.00
68841;PMS5003;55849;48.482;2.332;2023-06-22T18:13:47;4.50;4.00;2.75
68841;PMS5003;55849;48.482;2.332;2023-06-22T18:16:53;7.00;6.25;4.00
68841;PMS5003;55849;48.482;2.332;2023-06-22T18:19:57;4.00;4.00;3.00
68841;PMS5003;55849;48.482;2.332;2023-06-22T18:23:00;3.25;3.25;2.75
68841;PMS5003;55849;48.482;2.332;2023-06-22T18:26:03;3.00;3.00;2.00
68841;PMS5003;55849;48.482;2.332;2023-06-22T18:29:05;5.25;4.00;2.50
68841;PMS5003;55849;48.482;2.332;2023-06-22T18:32:09;5.25;4.00;3.00
68841;PMS5003;55849;48.482;2.332;2023-06-22T18:35:12;5.00;5.00;3.75
68841;PMS5003;55849;48.482;2.332;2023-06-22T18:38:15;5.00;5.00;4.00
68841;PMS5003;55849;48.482;2.332;2023-06-22T18:41:20;6.00;5.25;3.00
68841;PMS5003;55849;48.482;2.332;2023-06-22T18:44:24;5.00;5.00;4.00
68841;PMS5003;55849;48.482;2.332;2023-06-22T18:47:26;4.00;4.00;3.00
68841;PMS5003;55849;48.482;2.332;2023-06-22T18:50:37;5.00;3.50;2.50
68841;PMS5003;55849;48.482;2.332;2023-06-22T18:53:41;6.00;6.00;4.00
68841;PMS5003;55849;48.482;2.332;2023-06-22T18:56:51;5.75;5.75;4.00
68841;PMS5003;55849;48.482;2.332;2023-06-22T18:59:58;5.25;5.25;4.00
68841;PMS5003;55849;48.482;2.332;2023-06-22T19:03:03;4.75;4.75;3.00
68841;PMS5003;55849;48.482;2.332;2023-06-22T19:06:06;7.25;5.50;4.00
68841;PMS5003;55849;48.482;2.332;2023-06-22T19:09:12;6.50;6.50;3.50
68841;PMS5003;55849;48.482;2.332;2023-06-22T19:12:21;6.75;5.25;4.00
68841;PMS5003;55849;48.482;2.332;2023-06-22T19:15:31;5.25;5.25;3.00
68841;PMS5003;55849;48.482;2.332;2023-06-22T19:18:34;6.25;5.50;3.50
68841;PMS5003;55849;48.482;2.332;2023-06-22T19:21:38;6.00;6.00;4.00
68841;PMS5003;55849;48.482;2.332;2023-06-22T19:24:47;6.50;6.50;4.25
68841;PMS5003;55849;48.482;2.332;2023-06-22T19:27:50;6.25;6.25;4.00
68841;PMS5003;55849;48.482;2.332;2023-06-22T19:30:54;6.00;6.00;3.50
68841;PMS5003;55849;48.482;2.332;2023-06-22T19:33:59;5.00;5.00;3.50
68841;PMS5003;55849;48.482;2.332;2023-06-22T19:37:03;8.00;6.25;3.50
68841;PMS5003;55849;48.482;2.332;2023-06-22T19:40:15;7.00;5.50;4.00
68841;PMS5003;55849;48.482;2.332;2023-06-22T19:43:18;8.00;4.75;3.00
68841;PMS5003;55849;48.482;2.332;2023-06-22T19:46:25;6.25;4.50;4.00
68841;PMS5003;55849;48.482;2.332;2023-06-22T19:49:27;6.00;5.00;3.50
68841;PMS5003;55849;48.482;2.332;2023-06-22T19:52:34;6.00;4.00;3.00
68841;PMS5003;55849;48.482;2.332;2023-06-22T19:55:37;6.25;4.75;3.50
68841;PMS5003;55849;48.482;2.332;2023-06-22T19:58:40;6.00;5.75;4.50
68841;PMS5003;55849;48.482;2.332;2023-06-22T20:01:42;6.00;6.00;3.50
68841;PMS5003;55849;48.482;2.332;2023-06-22T20:04:45;7.00;6.00;4.00
68841;PMS5003;55849;48.482;2.332;2023-06-22T20:07:48;5.00;3.50;3.00
68841;PMS5003;55849;48.482;2.332;2023-06-22T20:10:49;7.75;5.50;4.00
68841;PMS5003;55849;48.482;2.332;2023-06-22T20:13:59;6.50;5.50;3.00
68841;PMS5003;55849;48.482;2.332;2023-06-22T20:17:03;5.25;4.50;3.75
68841;PMS5003;55849;48.482;2.332;2023-06-22T20:20:07;6.00;6.00;3.75
68841;PMS5003;55849;48.482;2.332;2023-06-22T20:23:21;4.00;4.00;3.75
68841;PMS5003;55849;48.482;2.332;2023-06-22T20:26:23;4.50;4.50;3.25
68841;PMS5003;55849;48.482;2.332;2023-06-22T20:29:25;5.00;5.00;4.00
68841;PMS5003;55849;48.482;2.332;2023-06-22T20:32:29;4.00;4.00;2.50
68841;PMS5003;55849;48.482;2.332;2023-06-22T20:35:32;3.75;3.75;2.00
68841;PMS5003;55849;48.482;2.332;2023-06-22T20:38:37;2.75;2.75;1.50
68841;PMS5003;55849;48.482;2.332;2023-06-22T20:41:38;4.50;3.75;2.25
68841;PMS5003;55849;48.482;2.332;2023-06-22T20:44:40;3.00;3.00;2.00
68841;PMS5003;55849;48.482;2.332;2023-06-22T20:47:45;2.00;2.00;2.00
68841;PMS5003;55849;48.482;2.332;2023-06-22T20:50:47;1.00;1.00;1.00
68841;PMS5003;55849;48.482;2.332;2023-06-22T20:53:50;2.00;2.00;1.75
68841;PMS5003;55849;48.482;2.332;2023-06-22T20:56:52;3.00;3.00;2.00
68841;PMS5003;55849;48.482;2.332;2023-06-22T20:59:53;3.00;2.00;2.00
68841;PMS5003;55849;48.482;2.332;2023-06-22T21:02:55;3.75;2.25;2.00
68841;PMS5003;55849;48.482;2.332;2023-06-22T21:05:57;3.00;3.00;2.00
68841;PMS5003;55849;48.482;2.332;2023-06-22T21:09:00;3.00;3.00;2.00
68841;PMS5003;55849;48.482;2.332;2023-06-22T21:12:01;3.75;3.50;2.00
68841;PMS5003;55849;48.482;2.332;2023-06-22T21:15:03;3.75;2.00;1.50
68841;PMS5003;55849;48.482;2.332;2023-06-22T21:18:06;2.50;2.00;1.00
68841;PMS5003;55849;48.482;2.332;2023-06-22T21:21:07;3.00;3.00;2.00
68841;PMS5003;55849;48.482;2.332;2023-06-22T21:24:10;4.00;4.00;3.00
68841;PMS5003;55849;48.482;2.332;2023-06-22T21:27:12;4.00;3.00;2.00
68841;PMS5003;55849;48.482;2.332;2023-06-22T21:30:14;2.50;2.25;2.00
68841;PMS5003;55849;48.482;2.332;2023-06-22T21:33:15;4.00;4.00;2.50
68841;PMS5003;55849;48.482;2.332;2023-06-22T21:36:17;4.00;4.00;2.25
68841;PMS5003;55849;48.482;2.332;2023-06-22T21:39:20;5.00;5.00;3.00
68841;PMS5003;55849;48.482;2.332;2023-06-22T21:42:22;6.25;4.50;2.25
68841;PMS5003;55849;48.482;2.332;2023-06-22T21:45:26;4.00;4.00;2.00
68841;PMS5003;55849;48.482;2.332;2023-06-22T21:48:28;3.00;3.00;1.75
68841;PMS5003;55849;48.482;2.332;2023-06-22T21:51:30;3.00;3.00;2.00
68841;PMS5003;55849;48.482;2.332;2023-06-22T21:54:33;2.50;2.50;1.50